createdAt,value
2022-08-19T00:01:45.945Z,65.07
2022-08-19T00:04:23.531Z,64.80
2022-08-19T00:06:51.339Z,64.89
2022-08-19T00:09:22.270Z,64.96
2022-08-19T00:11:50.143Z,65.09
2022-08-19T00:14:19.815Z,64.98
2022-08-19T00:16:49.048Z,65.00
2022-08-19T00:19:17.740Z,65.18
2022-08-19T00:21:45.674Z,65.17
2022-08-19T00:24:15.591Z,65.27
2022-08-19T00:26:46.342Z,65.62
2022-08-19T00:29:16.674Z,65.70
2022-08-19T00:31:44.826Z,65.79
2022-08-19T00:34:13.591Z,65.66
2022-08-19T00:36:42.301Z,66.10
2022-08-19T00:39:11.476Z,66.08
2022-08-19T00:41:40.237Z,66.22
2022-08-19T00:44:12.239Z,66.10
2022-08-19T00:46:43.077Z,66.14
2022-08-19T00:49:16.429Z,66.25
2022-08-19T00:51:46.794Z,66.21
2022-08-19T00:54:15.538Z,66.18
2022-08-19T00:56:44.401Z,66.13
2022-08-19T00:59:15.546Z,66.22
2022-08-19T01:02:03.467Z,66.28
2022-08-19T01:04:31.256Z,66.39
2022-08-19T01:07:00.579Z,66.21
2022-08-19T01:09:28.368Z,66.25
2022-08-19T01:11:57.773Z,66.05
2022-08-19T01:14:27.349Z,66.26
2022-08-19T01:16:57.889Z,66.27
2022-08-19T01:19:30.674Z,66.02
2022-08-19T01:22:16.831Z,66.01
2022-08-19T01:24:49.734Z,65.80
2022-08-19T01:27:18.167Z,65.97
2022-08-19T01:29:46.848Z,66.21
2022-08-19T01:32:33.571Z,66.19
2022-08-19T01:35:02.990Z,66.12
2022-08-19T01:37:31.601Z,66.09
2022-08-19T01:40:00.926Z,66.57
2022-08-19T01:42:30.458Z,66.46
2022-08-19T01:44:59.170Z,66.36
2022-08-19T01:47:26.914Z,66.45
2022-08-19T01:49:54.916Z,66.44
2022-08-19T01:52:22.672Z,66.56
2022-08-19T01:54:50.447Z,66.71
2022-08-19T01:57:19.549Z,66.47
2022-08-19T01:59:47.746Z,66.41
2022-08-19T02:02:15.689Z,66.62
2022-08-19T02:04:43.471Z,66.54
2022-08-19T02:07:11.308Z,66.34
2022-08-19T02:09:39.193Z,66.50
2022-08-19T02:12:09.591Z,66.33
2022-08-19T02:14:39.150Z,66.43
2022-08-19T02:17:07.004Z,66.29
2022-08-19T02:19:34.940Z,66.46
2022-08-19T02:22:02.855Z,66.85
2022-08-19T02:24:30.822Z,66.54
2022-08-19T02:26:59.704Z,66.68
2022-08-19T02:29:27.556Z,66.83
2022-08-19T02:31:56.998Z,66.63
2022-08-19T02:34:25.865Z,66.71
2022-08-19T02:36:53.777Z,66.51
2022-08-19T02:39:20.581Z,66.80
2022-08-19T02:41:48.282Z,66.71
2022-08-19T02:44:26.656Z,66.65
2022-08-19T02:47:00.645Z,66.61
2022-08-19T02:49:28.673Z,66.69
2022-08-19T02:51:56.441Z,66.69
2022-08-19T02:54:24.230Z,66.76
2022-08-19T02:56:52.400Z,66.78
2022-08-19T02:59:22.873Z,66.96
2022-08-19T03:01:51.423Z,66.75
2022-08-19T03:04:21.279Z,66.90
2022-08-19T03:06:49.683Z,66.74
2022-08-19T03:09:18.428Z,66.90
2022-08-19T03:11:46.368Z,66.74
2022-08-19T03:14:16.449Z,67.02
2022-08-19T03:16:47.102Z,66.96
2022-08-19T03:19:17.339Z,67.13
2022-08-19T03:21:47.260Z,67.04
2022-08-19T03:24:17.033Z,67.13
2022-08-19T03:26:47.797Z,67.05
2022-08-19T03:29:16.162Z,67.08
2022-08-19T03:31:58.439Z,66.79
2022-08-19T03:34:28.678Z,66.89
2022-08-19T03:36:59.713Z,66.82
2022-08-19T03:39:28.083Z,66.82
2022-08-19T03:42:32.569Z,67.01
2022-08-19T03:44:46.672Z,67.08
2022-08-19T03:47:17.781Z,67.19
2022-08-19T03:49:45.594Z,66.95
2022-08-19T03:52:15.219Z,66.97
2022-08-19T03:54:43.216Z,66.95
2022-08-19T03:57:12.121Z,66.67
2022-08-19T03:59:40.419Z,66.80
2022-08-19T04:02:11.532Z,66.64
2022-08-19T04:04:40.792Z,66.81
2022-08-19T04:07:09.351Z,66.64
2022-08-19T04:09:38.848Z,66.78
2022-08-19T04:12:07.701Z,66.70
2022-08-19T04:14:36.445Z,66.61
2022-08-19T04:17:06.621Z,66.63
2022-08-19T04:19:35.625Z,66.60
2022-08-19T04:22:04.887Z,66.54
2022-08-19T04:24:33.030Z,66.51
2022-08-19T04:27:03.632Z,66.55
2022-08-19T04:29:31.823Z,66.60
2022-08-19T04:32:08.734Z,66.27
2022-08-19T04:35:02.482Z,66.39
2022-08-19T04:37:25.705Z,66.31
2022-08-19T04:40:11.050Z,66.55
2022-08-19T04:42:43.051Z,66.41
2022-08-19T04:45:13.267Z,66.43
2022-08-19T04:47:47.999Z,66.38
2022-08-19T04:50:26.103Z,66.28
2022-08-19T04:52:54.532Z,66.66
2022-08-19T04:55:22.537Z,66.44
2022-08-19T04:57:51.687Z,66.56
2022-08-19T05:00:19.675Z,66.52
2022-08-19T05:02:47.552Z,66.58
2022-08-19T05:05:15.359Z,66.63
2022-08-19T05:07:43.159Z,66.77
2022-08-19T05:10:12.543Z,66.87
2022-08-19T05:12:40.533Z,66.52
2022-08-19T05:15:10.696Z,66.69
2022-08-19T05:17:39.281Z,66.13
2022-08-19T05:20:25.340Z,66.07
2022-08-19T05:22:53.364Z,66.01
2022-08-19T05:25:22.861Z,66.24
2022-08-19T05:27:50.758Z,66.10
2022-08-19T05:30:20.404Z,66.14
2022-08-19T05:33:09.091Z,66.13
2022-08-19T05:35:38.185Z,65.83
2022-08-19T05:38:05.909Z,66.07
2022-08-19T05:40:36.986Z,66.17
2022-08-19T05:43:05.916Z,65.55
2022-08-19T05:45:39.796Z,65.67
2022-08-19T05:48:07.733Z,65.88
2022-08-19T05:50:37.267Z,65.77
2022-08-19T05:53:05.199Z,65.46
2022-08-19T05:55:33.091Z,65.58
2022-08-19T05:58:02.720Z,65.48
2022-08-19T06:00:31.629Z,65.32
2022-08-19T06:03:11.860Z,65.28
2022-08-19T06:05:46.254Z,64.95
2022-08-19T06:08:33.762Z,64.79
2022-08-19T06:11:16.157Z,64.84
2022-08-19T06:13:44.327Z,65.14
2022-08-19T06:16:12.098Z,64.99
2022-08-19T06:18:41.205Z,65.02
2022-08-19T06:21:09.009Z,64.96
2022-08-19T06:23:36.772Z,64.61
2022-08-19T06:26:05.236Z,64.43
2022-08-19T06:28:33.884Z,64.46
2022-08-19T06:31:07.448Z,64.84
2022-08-19T06:33:35.387Z,64.42
2022-08-19T06:36:05.316Z,64.41
2022-08-19T06:38:34.436Z,64.49
2022-08-19T06:41:07.696Z,64.59
2022-08-19T06:43:37.152Z,64.13
2022-08-19T06:46:14.704Z,63.82
2022-08-19T06:48:45.423Z,64.05
2022-08-19T06:51:19.775Z,63.52
2022-08-19T06:53:48.243Z,63.54
2022-08-19T06:56:18.061Z,63.56
2022-08-19T06:58:47.527Z,63.07
2022-08-19T07:01:15.445Z,63.16
2022-08-19T07:03:43.226Z,63.19
2022-08-19T07:06:32.597Z,63.00
2022-08-19T07:09:03.027Z,61.97
2022-08-19T07:11:31.950Z,62.50
2022-08-19T07:14:02.109Z,62.44
2022-08-19T07:16:31.401Z,61.53
2022-08-19T07:19:00.289Z,61.87
2022-08-19T07:21:40.425Z,61.94
2022-08-19T07:24:09.794Z,62.09
2022-08-19T07:26:42.209Z,61.45
2022-08-19T07:29:10.736Z,61.02
2022-08-19T07:31:38.696Z,60.66
2022-08-19T07:34:08.650Z,60.68
2022-08-19T07:36:38.471Z,60.24
2022-08-19T07:39:10.459Z,60.16
2022-08-19T07:41:38.334Z,59.52
2022-08-19T07:44:08.394Z,59.34
2022-08-19T07:46:38.299Z,58.68
2022-08-19T07:49:06.848Z,58.83
2022-08-19T07:51:36.968Z,58.13
2022-08-19T07:54:05.361Z,57.55
2022-08-19T07:56:34.549Z,57.53
2022-08-19T07:59:02.298Z,57.14
2022-08-19T08:01:30.449Z,56.43
2022-08-19T08:04:17.356Z,56.10
2022-08-19T08:07:03.427Z,55.47
2022-08-19T08:09:34.799Z,54.65
2022-08-19T08:12:30.839Z,54.52
2022-08-19T08:14:59.405Z,54.55
2022-08-19T08:17:48.521Z,54.44
2022-08-19T08:20:17.096Z,53.57
2022-08-19T08:23:03.644Z,53.11
2022-08-19T08:25:32.521Z,52.16
2022-08-19T08:28:04.802Z,52.11
2022-08-19T08:30:33.846Z,51.37
2022-08-19T08:33:02.519Z,51.17
2022-08-19T08:35:30.795Z,50.88
2022-08-19T08:37:58.884Z,50.40
2022-08-19T08:40:31.866Z,50.33
2022-08-19T08:45:46.229Z,49.37
2022-08-19T08:48:27.716Z,49.11
2022-08-19T08:50:58.858Z,48.91
2022-08-19T08:53:31.071Z,47.80
2022-08-19T08:56:03.970Z,48.09
2022-08-19T08:58:44.702Z,47.23
2022-08-19T09:01:14.907Z,46.94
2022-08-19T09:03:46.351Z,46.56
2022-08-19T09:06:19.603Z,46.35
2022-08-19T09:08:58.555Z,46.98
2022-08-19T09:11:44.491Z,46.63
2022-08-19T09:14:47.215Z,46.75
2022-08-19T09:17:11.855Z,45.84
2022-08-19T09:19:54.099Z,45.98
2022-08-19T09:22:25.949Z,45.45
2022-08-19T09:24:56.378Z,44.84
2022-08-19T09:27:42.423Z,45.01
2022-08-19T09:30:16.067Z,43.34
2022-08-19T09:32:46.251Z,43.58
2022-08-19T09:35:15.472Z,43.60
2022-08-19T09:37:52.286Z,43.00
2022-08-19T09:40:26.621Z,42.34
2022-08-19T09:42:54.464Z,43.07
2022-08-19T09:45:23.859Z,42.53
2022-08-19T09:47:55.601Z,41.67
2022-08-19T09:50:25.084Z,41.85
2022-08-19T09:52:56.988Z,41.73
2022-08-19T09:55:31.466Z,42.03
2022-08-19T09:58:02.333Z,42.22
2022-08-19T10:00:31.850Z,40.43
2022-08-19T10:03:01.237Z,41.02
2022-08-19T10:05:48.591Z,41.43
2022-08-19T10:08:17.520Z,40.89
2022-08-19T10:10:46.289Z,39.73
2022-08-19T10:13:15.968Z,40.03
2022-08-19T10:15:47.179Z,41.20
2022-08-19T10:18:19.279Z,41.30
2022-08-19T10:20:51.826Z,40.15
2022-08-19T10:23:21.923Z,40.68
2022-08-19T10:25:49.908Z,40.56
2022-08-19T10:28:19.387Z,39.31
2022-08-19T10:30:48.553Z,38.96
2022-08-19T10:33:39.205Z,39.93
2022-08-19T10:36:08.737Z,39.96
2022-08-19T10:38:37.145Z,39.21
2022-08-19T10:41:17.297Z,38.95
2022-08-19T10:43:46.101Z,38.54
2022-08-19T10:46:16.766Z,37.59
2022-08-19T10:48:46.482Z,36.64
2022-08-19T10:51:32.402Z,36.36
2022-08-19T10:54:01.117Z,36.00
2022-08-19T10:56:46.539Z,35.62
2022-08-19T10:59:15.359Z,34.46
2022-08-19T11:01:44.739Z,34.89
2022-08-19T11:04:19.071Z,34.24
2022-08-19T11:06:48.375Z,33.69
2022-08-19T11:09:17.992Z,32.51
2022-08-19T11:11:46.457Z,32.19
2022-08-19T11:14:16.687Z,32.31
2022-08-19T11:16:45.374Z,31.88
2022-08-19T11:19:15.260Z,31.86
2022-08-19T11:21:45.893Z,31.78
2022-08-19T11:24:21.203Z,31.18
2022-08-19T11:26:50.224Z,30.74
2022-08-19T11:29:20.808Z,30.34
2022-08-19T11:31:50.971Z,29.68
2022-08-19T11:34:22.012Z,29.78
2022-08-19T11:36:51.049Z,29.82
2022-08-19T11:39:21.027Z,29.20
2022-08-19T11:41:49.413Z,29.07
2022-08-19T11:44:18.162Z,29.08
2022-08-19T11:46:47.874Z,29.41
2022-08-19T11:49:16.992Z,29.22
2022-08-19T11:51:46.149Z,28.71
2022-08-19T11:54:15.598Z,28.99
2022-08-19T11:59:27.736Z,28.46
2022-08-19T12:01:56.985Z,28.69
2022-08-19T12:04:25.221Z,28.71
2022-08-19T12:06:54.014Z,28.62
2022-08-19T12:09:23.134Z,28.29
2022-08-19T12:11:51.863Z,28.31
2022-08-19T12:14:19.812Z,27.64
2022-08-19T12:16:52.213Z,28.24
2022-08-19T12:19:22.331Z,27.96
2022-08-19T12:21:51.486Z,27.94
2022-08-19T12:24:23.999Z,28.17
2022-08-19T12:26:53.200Z,27.84
2022-08-19T12:29:24.046Z,28.10
2022-08-19T12:31:53.898Z,28.61
2022-08-19T12:34:22.057Z,28.19
2022-08-19T12:36:50.582Z,28.05
2022-08-19T12:39:18.930Z,28.59
2022-08-19T12:41:54.781Z,27.88
2022-08-19T12:44:29.375Z,28.17
2022-08-19T12:47:01.472Z,27.91
2022-08-19T12:49:52.269Z,28.01
2022-08-19T12:52:23.144Z,26.87
2022-08-19T12:54:54.415Z,27.56
2022-08-19T12:57:23.789Z,27.77
2022-08-19T13:00:00.743Z,27.51
2022-08-19T13:02:30.000Z,28.00
2022-08-19T13:04:58.678Z,27.80
2022-08-19T13:07:26.617Z,27.70
2022-08-19T13:09:54.946Z,27.84
2022-08-19T13:12:25.334Z,27.66
2022-08-19T13:14:53.339Z,27.83
2022-08-19T13:17:21.453Z,27.82
2022-08-19T13:19:51.724Z,28.30
2022-08-19T13:22:19.737Z,28.52
2022-08-19T13:24:47.704Z,27.67
2022-08-19T13:27:15.726Z,27.93
2022-08-19T13:30:02.314Z,28.10
2022-08-19T13:32:48.961Z,28.21
2022-08-19T13:35:19.319Z,27.62
2022-08-19T13:37:47.243Z,27.12
2022-08-19T13:40:19.385Z,27.56
2022-08-19T13:42:49.153Z,28.35
2022-08-19T13:45:18.988Z,28.55
2022-08-19T13:47:48.515Z,28.30
2022-08-19T13:50:20.563Z,29.21
2022-08-19T13:52:49.626Z,28.97
2022-08-19T13:55:24.841Z,29.08
2022-08-19T13:57:54.002Z,29.44
2022-08-19T14:00:22.953Z,29.47
2022-08-19T14:02:53.535Z,29.50
2022-08-19T14:05:23.385Z,30.20
2022-08-19T14:07:51.426Z,29.74
2022-08-19T14:10:19.899Z,30.35
2022-08-19T14:12:48.463Z,30.44
2022-08-19T14:15:17.173Z,30.22
2022-08-19T14:17:49.664Z,30.95
2022-08-19T14:20:18.670Z,30.11
2022-08-19T14:22:49.933Z,30.43
2022-08-19T14:25:20.931Z,30.26
2022-08-19T14:27:49.871Z,29.89
2022-08-19T14:30:20.362Z,30.60
2022-08-19T14:32:48.287Z,30.95
2022-08-19T14:35:17.592Z,31.38
2022-08-19T14:37:47.592Z,31.27
2022-08-19T14:40:18.849Z,30.24
2022-08-19T14:42:46.737Z,30.56
2022-08-19T14:45:14.719Z,29.78
2022-08-19T14:47:42.542Z,29.87
2022-08-19T14:50:17.785Z,29.26
2022-08-19T14:52:48.828Z,29.95
2022-08-19T14:55:18.467Z,29.88
2022-08-19T14:57:47.406Z,29.48
2022-08-19T15:00:16.818Z,29.35
2022-08-19T15:02:45.263Z,29.37
2022-08-19T15:05:13.202Z,29.34
2022-08-19T15:07:41.861Z,28.84
2022-08-19T15:10:13.584Z,28.91
2022-08-19T15:12:43.253Z,29.70
2022-08-19T15:15:14.506Z,29.18
2022-08-19T15:17:43.757Z,29.16
2022-08-19T15:20:15.267Z,29.59
2022-08-19T15:22:43.349Z,29.19
2022-08-19T15:25:16.410Z,29.48
2022-08-19T15:27:44.428Z,29.11
2022-08-19T15:30:13.970Z,29.64
2022-08-19T15:32:44.269Z,29.79
2022-08-19T15:35:15.610Z,29.43
2022-08-19T15:37:43.828Z,30.27
2022-08-19T15:40:14.082Z,29.67
2022-08-19T15:42:43.571Z,29.95
2022-08-19T15:45:13.500Z,30.18
2022-08-19T15:47:41.879Z,30.49
2022-08-19T15:50:11.474Z,30.65
2022-08-19T15:52:49.491Z,30.26
2022-08-19T15:55:32.181Z,30.65
2022-08-19T15:58:24.135Z,30.87
2022-08-19T16:01:13.717Z,30.90
2022-08-19T16:04:00.158Z,30.85
2022-08-19T16:06:28.152Z,31.33
2022-08-19T16:08:57.511Z,31.39
2022-08-19T16:11:30.546Z,31.41
2022-08-19T16:13:59.780Z,31.76
2022-08-19T16:16:33.803Z,32.27
2022-08-19T16:19:05.077Z,31.95
2022-08-19T16:21:34.694Z,32.75
2022-08-19T16:24:06.692Z,32.74
2022-08-19T16:26:36.432Z,32.93
2022-08-19T16:29:08.993Z,33.27
2022-08-19T16:31:41.389Z,33.32
2022-08-19T16:34:09.396Z,33.62
2022-08-19T16:36:42.129Z,34.07
2022-08-19T16:39:11.222Z,33.73
2022-08-19T16:41:41.243Z,33.55
2022-08-19T16:44:11.448Z,34.01
2022-08-19T16:46:41.665Z,34.21
2022-08-19T16:49:11.579Z,34.24
2022-08-19T16:51:40.098Z,34.35
2022-08-19T16:54:08.367Z,35.21
2022-08-19T16:56:36.755Z,34.96
2022-08-19T16:59:06.610Z,35.14
2022-08-19T17:01:34.583Z,35.76
2022-08-19T17:04:02.437Z,35.14
2022-08-19T17:06:32.129Z,35.18
2022-08-19T17:09:01.932Z,35.44
2022-08-19T17:11:31.558Z,35.44
2022-08-19T17:13:59.574Z,35.85
2022-08-19T17:16:32.024Z,35.76
2022-08-19T17:19:01.740Z,36.02
2022-08-19T17:21:33.146Z,35.76
2022-08-19T17:24:02.266Z,35.84
2022-08-19T17:26:31.262Z,36.45
2022-08-19T17:29:00.365Z,36.35
2022-08-19T17:31:32.009Z,36.14
2022-08-19T17:34:00.764Z,36.50
2022-08-19T17:36:31.540Z,36.71
2022-08-19T17:39:01.703Z,36.82
2022-08-19T17:41:32.257Z,37.06
2022-08-19T17:44:00.093Z,36.88
2022-08-19T17:49:10.941Z,36.69
2022-08-19T17:51:42.412Z,37.34
2022-08-19T17:54:12.192Z,37.21
2022-08-19T17:56:40.457Z,36.60
2022-08-19T17:59:13.929Z,36.66
2022-08-19T18:01:52.117Z,37.01
2022-08-19T18:04:24.937Z,37.15
2022-08-19T18:06:55.050Z,37.25
2022-08-19T18:09:30.043Z,36.99
2022-08-19T18:12:11.712Z,37.13
2022-08-19T18:14:40.501Z,37.49
2022-08-19T18:17:10.740Z,37.76
2022-08-19T18:19:43.739Z,37.64
2022-08-19T18:24:38.983Z,38.18
2022-08-19T18:27:07.222Z,38.82
2022-08-19T18:29:36.957Z,38.77
2022-08-19T18:32:05.613Z,38.79
2022-08-19T18:34:33.646Z,38.89
2022-08-19T18:39:45.484Z,38.87
2022-08-19T18:42:32.776Z,38.96
2022-08-19T18:45:17.953Z,38.95
2022-08-19T18:48:03.244Z,39.53
2022-08-19T18:50:31.154Z,39.67
2022-08-19T18:52:59.566Z,39.88
2022-08-19T18:55:29.389Z,39.94
2022-08-19T18:57:57.426Z,40.01
2022-08-19T19:00:25.309Z,40.61
2022-08-19T19:05:20.340Z,40.70
2022-08-19T19:07:48.722Z,41.15
2022-08-19T19:10:16.514Z,41.43
2022-08-19T19:12:45.795Z,41.68
2022-08-19T19:15:14.157Z,41.74
2022-08-19T19:20:25.257Z,41.73
2022-08-19T19:23:04.829Z,41.87
2022-08-19T19:25:49.593Z,41.63
2022-08-19T19:28:27.752Z,41.59
2022-08-19T19:30:58.484Z,41.61
2022-08-19T19:33:26.847Z,41.70
2022-08-19T19:35:54.806Z,41.60
2022-08-19T19:40:47.896Z,42.12
2022-08-19T19:43:18.177Z,42.29
2022-08-19T19:45:48.306Z,42.74
2022-08-19T19:50:41.445Z,43.28
2022-08-19T19:53:09.272Z,43.53
2022-08-19T19:55:37.149Z,43.82
2022-08-19T19:58:06.973Z,44.16
2022-08-19T20:00:35.214Z,44.13
2022-08-19T20:03:04.685Z,44.53
2022-08-19T20:05:32.643Z,44.53
2022-08-19T20:08:18.523Z,44.90
2022-08-19T20:10:47.333Z,44.99
2022-08-19T20:15:52.121Z,45.25
2022-08-19T20:18:21.503Z,45.61
2022-08-19T20:23:14.955Z,46.00
2022-08-19T20:25:43.512Z,46.30
2022-08-19T20:28:12.446Z,46.42
2022-08-19T20:30:47.973Z,46.69
2022-08-19T20:33:16.051Z,46.78
2022-08-19T20:35:46.228Z,47.23
2022-08-19T20:38:14.158Z,47.07
2022-08-19T20:40:42.195Z,47.25
2022-08-19T20:43:11.898Z,47.20
2022-08-19T20:45:40.303Z,47.30
2022-08-19T20:50:35.302Z,47.48
2022-08-19T20:55:35.331Z,47.79
2022-08-19T20:58:03.880Z,47.81
2022-08-19T21:00:31.950Z,47.96
2022-08-19T21:02:59.748Z,48.07
2022-08-19T21:05:30.604Z,48.38
2022-08-19T21:07:59.106Z,48.59
2022-08-19T21:10:28.326Z,48.46
2022-08-19T21:12:56.486Z,48.64
2022-08-19T21:15:25.011Z,48.94
2022-08-19T21:17:52.894Z,48.99
2022-08-19T21:20:20.865Z,49.09
2022-08-19T21:22:48.729Z,49.18
2022-08-19T21:25:17.936Z,49.43
2022-08-19T21:27:47.050Z,49.65
2022-08-19T21:30:15.221Z,50.02
2022-08-19T21:32:43.062Z,49.98
2022-08-19T21:35:11.156Z,50.41
2022-08-19T21:37:38.948Z,50.39
2022-08-19T21:40:08.329Z,50.46
2022-08-19T21:42:36.230Z,50.50
2022-08-19T21:45:06.294Z,50.61
2022-08-19T21:47:34.226Z,50.91
2022-08-19T21:50:02.066Z,50.95
2022-08-19T21:52:29.880Z,51.32
2022-08-19T21:54:58.069Z,51.60
2022-08-19T21:57:26.493Z,51.61
2022-08-19T21:59:54.437Z,51.88
2022-08-19T22:02:23.819Z,52.00
2022-08-19T22:04:52.792Z,52.10
2022-08-19T22:07:22.036Z,51.91
2022-08-19T22:09:51.653Z,51.99
2022-08-19T22:12:24.418Z,52.18
2022-08-19T22:14:53.390Z,52.50
2022-08-19T22:17:23.785Z,52.60
2022-08-19T22:19:52.638Z,52.62
2022-08-19T22:24:45.763Z,52.81
2022-08-19T22:27:13.555Z,53.07
2022-08-19T22:29:41.448Z,53.10
2022-08-19T22:32:26.292Z,53.21
2022-08-19T22:34:59.127Z,53.19
2022-08-19T22:37:28.871Z,53.44
2022-08-19T22:39:57.000Z,53.59
2022-08-19T22:42:31.839Z,53.42
2022-08-19T22:45:01.048Z,53.60
2022-08-19T22:47:32.035Z,53.71
2022-08-19T22:50:04.440Z,53.75
2022-08-19T22:52:31.720Z,53.64
2022-08-19T22:55:02.711Z,53.95
2022-08-19T23:00:14.767Z,54.26
2022-08-19T23:02:52.130Z,54.32
2022-08-19T23:07:53.577Z,54.61
2022-08-19T23:10:27.532Z,54.74
2022-08-19T23:15:25.801Z,55.02
2022-08-19T23:17:55.373Z,55.14
2022-08-19T23:20:27.078Z,55.45
2022-08-19T23:22:57.455Z,55.45
2022-08-19T23:25:28.010Z,55.69
2022-08-19T23:28:13.825Z,55.92
2022-08-19T23:30:44.817Z,55.91
2022-08-19T23:33:24.239Z,56.32
2022-08-19T23:35:53.890Z,56.79
2022-08-19T23:38:39.194Z,56.97
2022-08-19T23:41:09.120Z,57.32
2022-08-19T23:43:39.522Z,57.41
2022-08-19T23:46:10.719Z,57.55
2022-08-19T23:48:39.838Z,57.65
2022-08-19T23:51:10.920Z,57.92
2022-08-19T23:53:42.307Z,58.17
2022-08-19T23:56:12.485Z,58.33
2022-08-19T23:58:40.720Z,59.06
